createdAt,value
2023-04-21T00:00:56.496Z,12.25
2023-04-21T00:03:24.316Z,4.45
2023-04-21T00:05:51.708Z,9.57
2023-04-21T00:08:18.900Z,7.55
2023-04-21T00:10:46.957Z,8.30
2023-04-21T00:13:14.250Z,5.60
2023-04-21T00:15:41.662Z,8.93
2023-04-21T00:18:09.930Z,7.97
2023-04-21T00:20:36.960Z,6.10
2023-04-21T00:23:03.893Z,1.60
2023-04-21T00:25:30.779Z,6.93
2023-04-21T00:27:57.423Z,10.15
2023-04-21T00:30:24.125Z,5.97
2023-04-21T00:32:51.008Z,5.38
2023-04-21T00:35:18.811Z,7.88
2023-04-21T00:37:45.601Z,6.38
2023-04-21T00:40:13.630Z,4.53
2023-04-21T00:42:40.375Z,8.30
2023-04-21T00:45:07.527Z,5.00
2023-04-21T00:47:34.438Z,9.38
2023-04-21T00:50:02.332Z,4.80
2023-04-21T00:52:29.639Z,5.63
2023-04-21T00:54:57.144Z,6.47
2023-04-21T00:57:24.071Z,14.10
2023-04-21T00:59:52.029Z,8.90
2023-04-21T01:02:19.445Z,4.65
2023-04-21T01:04:46.232Z,6.43
2023-04-21T01:07:12.905Z,7.70
2023-04-21T01:09:39.716Z,15.70
2023-04-21T01:12:08.820Z,8.60
2023-04-21T01:14:39.980Z,8.25
2023-04-21T01:17:08.218Z,13.95
2023-04-21T01:19:40.662Z,11.90
2023-04-21T01:24:44.698Z,10.45
2023-04-21T01:27:13.927Z,6.03
2023-04-21T01:29:43.439Z,11.38
2023-04-21T01:32:13.449Z,12.45
2023-04-21T01:34:41.421Z,12.07
2023-04-21T01:37:09.784Z,8.75
2023-04-21T01:39:44.038Z,8.15
2023-04-21T01:42:11.444Z,7.20
2023-04-21T01:44:38.669Z,9.20
2023-04-21T01:47:06.126Z,11.23
2023-04-21T01:49:32.748Z,11.20
2023-04-21T01:51:59.590Z,14.13
2023-04-21T01:54:26.315Z,9.60
2023-04-21T01:56:53.122Z,5.97
2023-04-21T01:59:20.123Z,7.65
2023-04-21T02:01:46.983Z,10.40
2023-04-21T02:04:13.821Z,15.65
2023-04-21T02:06:40.634Z,9.30
2023-04-21T02:09:07.324Z,15.20
2023-04-21T02:11:34.177Z,11.60
2023-04-21T02:14:01.046Z,10.38
2023-04-21T02:16:28.039Z,19.92
2023-04-21T02:19:03.338Z,11.77
2023-04-21T02:21:30.573Z,8.07
2023-04-21T02:23:57.140Z,12.05
2023-04-21T02:26:23.805Z,9.85
2023-04-21T02:28:51.267Z,8.05
2023-04-21T02:31:18.837Z,11.73
2023-04-21T02:33:46.106Z,12.25
2023-04-21T02:36:13.159Z,6.80
2023-04-21T02:38:39.911Z,13.07
2023-04-21T02:41:06.598Z,9.57
2023-04-21T02:43:33.203Z,7.07
2023-04-21T02:45:59.849Z,16.40
2023-04-21T02:48:26.930Z,10.65
2023-04-21T02:50:53.764Z,13.18
2023-04-21T02:53:21.141Z,8.70
2023-04-21T02:55:48.208Z,13.32
2023-04-21T02:58:15.175Z,13.65
2023-04-21T03:00:49.534Z,13.45
2023-04-21T03:03:16.692Z,13.00
2023-04-21T03:05:43.528Z,10.85
2023-04-21T03:08:10.202Z,11.05
2023-04-21T03:10:38.061Z,15.20
2023-04-21T03:13:04.690Z,13.75
2023-04-21T03:15:32.071Z,15.75
2023-04-21T03:17:58.736Z,9.70
2023-04-21T03:20:25.530Z,10.13
2023-04-21T03:22:54.242Z,14.93
2023-04-21T03:25:21.033Z,11.00
2023-04-21T03:27:47.670Z,10.55
2023-04-21T03:30:14.345Z,10.73
2023-04-21T03:32:41.212Z,9.10
2023-04-21T03:35:08.044Z,14.93
2023-04-21T03:37:34.753Z,8.10
2023-04-21T03:40:01.454Z,12.90
2023-04-21T03:42:29.773Z,12.13
2023-04-21T03:44:56.411Z,14.45
2023-04-21T03:47:23.078Z,8.73
2023-04-21T03:49:49.751Z,8.88
2023-04-21T03:52:16.441Z,6.80
2023-04-21T03:54:43.140Z,10.32
2023-04-21T03:57:09.886Z,8.15
2023-04-21T03:59:36.514Z,17.23
2023-04-21T04:02:03.590Z,13.57
2023-04-21T04:04:30.729Z,9.77
2023-04-21T04:06:57.620Z,11.52
2023-04-21T04:09:24.461Z,19.65
2023-04-21T04:11:51.211Z,19.55
2023-04-21T04:14:17.888Z,7.93
2023-04-21T04:16:44.569Z,10.40
2023-04-21T04:19:11.618Z,11.75
2023-04-21T04:21:38.477Z,11.75
2023-04-21T04:24:05.461Z,11.40
2023-04-21T04:26:35.872Z,8.73
2023-04-21T04:29:02.635Z,7.75
2023-04-21T04:31:30.502Z,6.00
2023-04-21T04:33:57.770Z,9.57
2023-04-21T04:36:25.210Z,12.98
2023-04-21T04:38:51.843Z,14.45
2023-04-21T04:41:19.604Z,11.02
2023-04-21T04:43:46.663Z,8.00
2023-04-21T04:46:13.681Z,11.93
2023-04-21T04:48:40.624Z,10.98
2023-04-21T04:51:07.612Z,13.38
2023-04-21T04:53:34.265Z,8.82
2023-04-21T04:56:00.926Z,18.65
2023-04-21T04:58:27.560Z,11.07
2023-04-21T05:00:54.502Z,16.45
2023-04-21T05:03:21.400Z,13.05
2023-04-21T05:05:48.171Z,14.52
2023-04-21T05:08:17.669Z,17.05
2023-04-21T05:10:44.794Z,11.98
2023-04-21T05:13:11.444Z,15.35
2023-04-21T05:15:38.093Z,9.75
2023-04-21T05:18:04.861Z,8.57
2023-04-21T05:20:31.763Z,11.75
2023-04-21T05:22:58.439Z,12.93
2023-04-21T05:25:25.157Z,15.15
2023-04-21T05:27:56.721Z,11.88
2023-04-21T05:30:23.512Z,13.57
2023-04-21T05:32:50.757Z,12.98
2023-04-21T05:35:17.478Z,14.50
2023-04-21T05:37:44.102Z,14.23
2023-04-21T05:40:11.017Z,18.60
2023-04-21T05:42:38.809Z,15.32
2023-04-21T05:45:05.923Z,11.18
2023-04-21T05:47:32.695Z,14.48
2023-04-21T05:49:59.352Z,19.95
2023-04-21T05:52:29.091Z,15.40
2023-04-21T05:54:55.825Z,16.58
2023-04-21T05:57:23.082Z,11.05
2023-04-21T05:59:49.738Z,12.75
2023-04-21T06:02:17.712Z,14.32
2023-04-21T06:04:44.670Z,10.07
2023-04-21T06:07:13.680Z,15.90
2023-04-21T06:09:41.426Z,16.67
2023-04-21T06:12:08.128Z,11.05
2023-04-21T06:14:34.836Z,19.90
2023-04-21T06:17:01.407Z,13.80
2023-04-21T06:19:31.033Z,21.58
2023-04-21T06:21:57.771Z,16.25
2023-04-21T06:24:27.416Z,25.75
2023-04-21T06:26:54.107Z,20.05
2023-04-21T06:29:21.057Z,9.52
2023-04-21T06:31:47.949Z,17.05
2023-04-21T06:34:14.687Z,17.92
2023-04-21T06:36:41.422Z,15.18
2023-04-21T06:39:08.048Z,8.02
2023-04-21T06:41:34.680Z,13.93
2023-04-21T06:44:01.387Z,14.98
2023-04-21T06:46:28.159Z,11.18
2023-04-21T06:48:54.763Z,13.30
2023-04-21T06:51:21.402Z,13.02
2023-04-21T06:53:48.070Z,13.82
2023-04-21T06:56:14.744Z,16.27
2023-04-21T06:58:41.352Z,27.38
2023-04-21T07:01:08.210Z,12.23
2023-04-21T07:03:34.990Z,32.42
2023-04-21T07:06:01.744Z,14.45
2023-04-21T07:08:28.393Z,22.63
2023-04-21T07:10:54.968Z,11.63
2023-04-21T07:13:21.596Z,10.05
2023-04-21T07:15:48.331Z,18.88
2023-04-21T07:18:15.168Z,20.92
2023-04-21T07:20:41.866Z,10.38
2023-04-21T07:23:08.530Z,19.98
2023-04-21T07:25:35.220Z,16.05
2023-04-21T07:28:03.278Z,13.85
2023-04-21T07:30:30.962Z,21.20
2023-04-21T07:32:57.855Z,22.98
2023-04-21T07:35:25.736Z,13.75
2023-04-21T07:37:52.439Z,19.58
2023-04-21T07:40:19.275Z,14.85
2023-04-21T07:42:46.471Z,16.60
2023-04-21T07:45:13.165Z,17.52
2023-04-21T07:47:39.805Z,16.45
2023-04-21T07:50:07.372Z,16.08
2023-04-21T07:52:34.412Z,13.98
2023-04-21T07:55:01.235Z,11.55
2023-04-21T07:57:27.900Z,19.20
2023-04-21T07:59:54.596Z,19.92
2023-04-21T08:02:21.692Z,23.05
2023-04-21T08:04:49.704Z,19.67
2023-04-21T08:07:16.815Z,21.25
2023-04-21T08:09:43.432Z,20.27
2023-04-21T08:12:10.151Z,16.42
2023-04-21T08:14:36.772Z,12.80
2023-04-21T08:17:03.415Z,12.63
2023-04-21T08:19:30.110Z,11.27
2023-04-21T08:21:57.596Z,19.45
2023-04-21T08:24:24.581Z,22.17
2023-04-21T08:26:51.349Z,22.35
2023-04-21T08:29:17.961Z,19.08
2023-04-21T08:31:44.631Z,15.75
2023-04-21T08:34:11.402Z,20.92
2023-04-21T08:36:38.096Z,15.20
2023-04-21T08:39:04.835Z,17.50
2023-04-21T08:41:31.684Z,18.20
2023-04-21T08:43:58.497Z,18.48
2023-04-21T08:46:27.727Z,20.65
2023-04-21T08:48:55.456Z,16.38
2023-04-21T08:51:24.115Z,16.58
2023-04-21T08:53:52.078Z,19.55
2023-04-21T08:56:19.038Z,21.50
2023-04-21T08:58:45.912Z,11.07
2023-04-21T09:01:12.812Z,13.98
2023-04-21T09:03:39.713Z,16.77
2023-04-21T09:06:09.821Z,12.38
2023-04-21T09:08:43.362Z,13.77
2023-04-21T09:11:14.517Z,14.63
2023-04-21T09:13:43.338Z,22.10
2023-04-21T09:16:20.172Z,14.65
2023-04-21T09:18:47.227Z,15.27
2023-04-21T09:21:16.224Z,17.95
2023-04-21T09:23:53.712Z,18.70
2023-04-21T09:26:23.235Z,13.57
2023-04-21T09:28:52.129Z,13.32
2023-04-21T09:31:29.054Z,19.45
2023-04-21T09:34:00.792Z,14.02
2023-04-21T09:36:30.392Z,19.90
2023-04-21T09:39:30.048Z,18.98
2023-04-21T09:41:49.677Z,22.55
2023-04-21T09:44:17.968Z,17.55
2023-04-21T09:46:48.549Z,18.40
2023-04-21T09:49:19.601Z,21.42
2023-04-21T09:54:28.944Z,17.35
2023-04-21T09:57:02.156Z,21.40
2023-04-21T09:59:45.144Z,17.17
2023-04-21T10:02:13.131Z,13.88
2023-04-21T10:04:42.369Z,15.50
2023-04-21T10:07:11.000Z,13.75
2023-04-21T10:09:45.412Z,16.30
2023-04-21T10:12:13.996Z,20.80
2023-04-21T10:14:40.917Z,20.30
2023-04-21T10:17:10.177Z,27.77
2023-04-21T10:19:47.682Z,20.90
2023-04-21T10:22:14.427Z,20.40
2023-04-21T10:24:45.249Z,17.55
2023-04-21T10:27:13.256Z,23.20
2023-04-21T10:29:52.281Z,18.33
2023-04-21T10:32:45.361Z,14.55
2023-04-21T10:35:21.649Z,24.00
2023-04-21T10:37:50.026Z,17.65
2023-04-21T10:43:06.360Z,18.83
2023-04-21T10:45:33.007Z,20.33
2023-04-21T10:48:01.594Z,20.98
2023-04-21T10:50:30.471Z,22.65
2023-04-21T10:53:09.875Z,20.55
2023-04-21T10:55:36.586Z,36.67
2023-04-21T10:58:06.308Z,16.00
2023-04-21T11:00:33.321Z,17.73
2023-04-21T11:03:05.321Z,15.38
2023-04-21T11:08:12.828Z,15.38
2023-04-21T11:10:57.643Z,19.30
2023-04-21T11:13:27.390Z,15.20
2023-04-21T11:15:59.754Z,18.98
2023-04-21T11:18:43.815Z,21.70
2023-04-21T11:21:12.427Z,15.13
2023-04-21T11:23:47.927Z,25.08
2023-04-21T11:26:14.630Z,14.90
2023-04-21T11:28:42.203Z,24.58
2023-04-21T11:31:08.844Z,20.10
2023-04-21T11:33:39.126Z,16.52
2023-04-21T11:36:08.803Z,16.55
2023-04-21T11:38:40.126Z,14.50
2023-04-21T11:41:07.680Z,14.75
2023-04-21T11:43:34.314Z,16.10
2023-04-21T11:46:18.339Z,16.83
2023-04-21T11:48:45.857Z,18.15
2023-04-21T11:51:20.696Z,14.65
2023-04-21T11:53:49.038Z,19.70
2023-04-21T11:56:21.826Z,15.85
2023-04-21T11:58:51.819Z,18.38
2023-04-21T12:01:20.886Z,13.57
2023-04-21T12:03:55.220Z,12.82
2023-04-21T12:06:29.387Z,16.45
2023-04-21T12:09:00.492Z,12.32
2023-04-21T12:11:31.818Z,17.98
2023-04-21T12:13:59.412Z,17.02
2023-04-21T12:16:27.897Z,25.65
2023-04-21T12:18:55.968Z,13.68
2023-04-21T12:21:28.880Z,10.07
2023-04-21T12:23:57.691Z,16.60
2023-04-21T12:26:24.966Z,18.25
2023-04-21T12:28:53.605Z,16.83
2023-04-21T12:31:20.259Z,14.73
2023-04-21T12:33:47.143Z,18.60
2023-04-21T12:36:13.852Z,13.48
2023-04-21T12:38:40.614Z,16.75
2023-04-21T12:41:07.566Z,18.80
2023-04-21T12:43:34.290Z,16.15
2023-04-21T12:46:02.122Z,15.60
2023-04-21T12:48:29.044Z,14.10
2023-04-21T12:50:55.762Z,16.20
2023-04-21T12:53:22.448Z,11.98
2023-04-21T12:56:01.062Z,12.68
2023-04-21T12:58:31.261Z,12.20
2023-04-21T13:00:58.150Z,18.98
2023-04-21T13:03:25.051Z,18.67
2023-04-21T13:05:52.178Z,26.13
2023-04-21T13:08:18.918Z,26.60
2023-04-21T13:10:46.056Z,13.93
2023-04-21T13:13:12.772Z,25.38
2023-04-21T13:15:39.462Z,18.52
2023-04-21T13:18:06.180Z,20.52
2023-04-21T13:20:32.820Z,15.25
2023-04-21T13:22:59.527Z,19.15
2023-04-21T13:25:26.284Z,16.00
2023-04-21T13:27:53.500Z,14.25
2023-04-21T13:30:20.445Z,19.42
2023-04-21T13:32:49.790Z,18.85
2023-04-21T13:35:16.637Z,15.65
2023-04-21T13:37:43.279Z,26.95
2023-04-21T13:40:10.653Z,20.85
2023-04-21T13:42:38.590Z,13.32
2023-04-21T13:45:06.731Z,21.55
2023-04-21T13:47:33.977Z,18.40
2023-04-21T13:50:01.031Z,15.63
2023-04-21T13:52:28.149Z,12.98
2023-04-21T13:54:54.889Z,20.38
2023-04-21T13:57:21.624Z,10.95
2023-04-21T13:59:48.343Z,16.25
2023-04-21T14:02:15.107Z,18.40
2023-04-21T14:04:42.218Z,16.35
2023-04-21T14:07:09.187Z,14.98
2023-04-21T14:09:35.946Z,16.65
2023-04-21T14:12:03.624Z,17.60
2023-04-21T14:14:38.797Z,18.30
2023-04-21T14:17:06.668Z,16.92
2023-04-21T14:19:34.046Z,14.15
2023-04-21T14:22:00.841Z,21.00
2023-04-21T14:24:29.290Z,19.42
2023-04-21T14:26:57.631Z,41.70
2023-04-21T14:29:24.500Z,27.00
2023-04-21T14:31:51.390Z,12.18
2023-04-21T14:34:18.105Z,17.58
2023-04-21T14:36:47.525Z,17.23
2023-04-21T14:39:14.192Z,16.65
2023-04-21T14:41:40.823Z,20.00
2023-04-21T14:44:07.471Z,19.33
2023-04-21T14:46:34.404Z,16.35
2023-04-21T14:49:01.218Z,26.70
2023-04-21T14:51:27.993Z,18.60
2023-04-21T14:53:54.661Z,20.17
2023-04-21T14:56:21.397Z,22.92
2023-04-21T14:58:48.104Z,26.42
2023-04-21T15:01:14.849Z,37.25
2023-04-21T15:03:42.259Z,22.05
2023-04-21T15:06:09.186Z,24.83
2023-04-21T15:08:35.956Z,18.27
2023-04-21T15:11:02.884Z,20.80
2023-04-21T15:13:29.748Z,17.60
2023-04-21T15:15:56.504Z,21.95
2023-04-21T15:18:23.105Z,20.20
2023-04-21T15:20:49.892Z,26.60
2023-04-21T15:23:16.859Z,21.83
2023-04-21T15:25:43.647Z,19.00
2023-04-21T15:28:10.272Z,26.05
2023-04-21T15:30:37.112Z,25.35
2023-04-21T15:33:04.638Z,19.73
2023-04-21T15:35:31.792Z,20.50
2023-04-21T15:37:58.468Z,30.17
2023-04-21T15:40:25.173Z,19.63
2023-04-21T15:42:51.990Z,23.00
2023-04-21T15:45:18.720Z,27.05
2023-04-21T15:47:45.581Z,24.38
2023-04-21T15:50:12.746Z,22.85
2023-04-21T15:52:43.205Z,19.88
2023-04-21T15:55:13.262Z,26.35
2023-04-21T15:57:40.201Z,22.50
2023-04-21T16:00:08.272Z,30.75
2023-04-21T16:02:35.273Z,23.88
2023-04-21T16:05:02.469Z,31.75
2023-04-21T16:07:29.709Z,24.60
2023-04-21T16:09:56.968Z,23.45
2023-04-21T16:12:23.905Z,35.55
2023-04-21T16:14:57.613Z,25.52
2023-04-21T16:17:28.477Z,28.17
2023-04-21T16:19:55.354Z,31.42
2023-04-21T16:22:22.231Z,25.98
2023-04-21T16:24:49.937Z,29.13
2023-04-21T16:27:17.030Z,24.00
2023-04-21T16:29:43.795Z,35.65
2023-04-21T16:32:10.485Z,23.95
2023-04-21T16:34:37.269Z,20.67
2023-04-21T16:37:04.259Z,20.30
2023-04-21T16:39:31.494Z,19.10
2023-04-21T16:41:58.200Z,23.65
2023-04-21T16:44:24.939Z,24.85
2023-04-21T16:46:51.946Z,33.95
2023-04-21T16:49:20.124Z,20.15
2023-04-21T16:51:46.806Z,33.67
2023-04-21T16:54:13.951Z,26.67
2023-04-21T16:56:40.726Z,27.48
2023-04-21T16:59:07.398Z,21.90
2023-04-21T17:01:34.087Z,27.08
2023-04-21T17:04:00.921Z,20.38
2023-04-21T17:06:27.867Z,20.73
2023-04-21T17:08:59.936Z,21.17
2023-04-21T17:11:28.747Z,21.08
2023-04-21T17:13:55.642Z,26.13
2023-04-21T17:16:22.442Z,21.67
2023-04-21T17:18:49.177Z,23.10
2023-04-21T17:21:16.028Z,24.42
2023-04-21T17:23:42.805Z,21.95
2023-04-21T17:26:11.573Z,24.02
2023-04-21T17:28:39.713Z,23.77
2023-04-21T17:31:15.230Z,23.35
2023-04-21T17:33:43.871Z,25.55
2023-04-21T17:36:11.348Z,18.15
2023-04-21T17:38:38.030Z,25.40
2023-04-21T17:41:06.839Z,18.83
2023-04-21T17:43:33.488Z,23.90
2023-04-21T17:46:00.320Z,28.20
2023-04-21T17:48:27.440Z,22.92
2023-04-21T17:50:54.061Z,26.70
2023-04-21T17:53:20.737Z,28.45
2023-04-21T17:55:47.396Z,24.65
2023-04-21T17:58:14.063Z,29.38
2023-04-21T18:00:40.918Z,24.60
2023-04-21T18:03:07.918Z,22.67
2023-04-21T18:05:34.719Z,32.17
2023-04-21T18:08:02.137Z,23.27
2023-04-21T18:10:29.976Z,34.78
2023-04-21T18:12:57.126Z,32.55
2023-04-21T18:15:24.043Z,23.77
2023-04-21T18:17:53.094Z,31.23
2023-04-21T18:20:19.987Z,18.95
2023-04-21T18:22:47.460Z,29.63
2023-04-21T18:25:14.750Z,26.85
2023-04-21T18:27:42.287Z,39.90
2023-04-21T18:30:09.662Z,23.38
2023-04-21T18:32:37.156Z,28.85
2023-04-21T18:35:05.542Z,32.53
2023-04-21T18:37:32.187Z,24.42
2023-04-21T18:39:59.055Z,25.50
2023-04-21T18:42:26.665Z,30.85
2023-04-21T18:44:57.611Z,31.17
2023-04-21T18:47:24.960Z,25.45
2023-04-21T18:49:52.669Z,38.22
2023-04-21T18:52:19.381Z,28.98
2023-04-21T18:54:46.045Z,23.27
2023-04-21T18:57:12.953Z,27.35
2023-04-21T18:59:39.638Z,32.92
2023-04-21T19:02:07.403Z,31.30
2023-04-21T19:04:34.474Z,31.67
2023-04-21T19:07:01.972Z,24.40
2023-04-21T19:09:28.870Z,27.77
2023-04-21T19:11:56.634Z,33.47
2023-04-21T19:14:25.620Z,34.08
2023-04-21T19:16:53.197Z,27.00
2023-04-21T19:19:20.201Z,26.95
2023-04-21T19:21:47.050Z,30.70
2023-04-21T19:24:13.683Z,22.70
2023-04-21T19:26:40.645Z,33.42
2023-04-21T19:29:12.341Z,24.15
2023-04-21T19:31:39.219Z,31.35
2023-04-21T19:34:06.804Z,28.65
2023-04-21T19:36:33.905Z,26.55
2023-04-21T19:39:00.785Z,20.45
2023-04-21T19:41:27.421Z,32.97
2023-04-21T19:43:54.103Z,27.85
2023-04-21T19:46:21.583Z,23.77
2023-04-21T19:48:48.277Z,25.98
2023-04-21T19:51:14.877Z,21.58
2023-04-21T19:53:41.466Z,18.63
2023-04-21T19:56:08.203Z,21.83
2023-04-21T19:58:40.652Z,23.27
2023-04-21T20:01:08.577Z,17.30
2023-04-21T20:03:35.646Z,23.30
2023-04-21T20:06:04.963Z,26.15
2023-04-21T20:08:31.882Z,30.02
2023-04-21T20:10:58.538Z,26.95
2023-04-21T20:13:25.551Z,19.88
2023-04-21T20:15:52.202Z,22.83
2023-04-21T20:18:18.975Z,22.40
2023-04-21T20:20:46.874Z,29.52
2023-04-21T20:23:13.659Z,36.15
2023-04-21T20:25:40.611Z,34.17
2023-04-21T20:28:07.247Z,23.83
2023-04-21T20:30:33.936Z,22.95
2023-04-21T20:33:00.578Z,23.23
2023-04-21T20:35:27.498Z,28.23
2023-04-21T20:37:54.162Z,26.58
2023-04-21T20:40:23.051Z,27.08
2023-04-21T20:42:52.093Z,22.50
2023-04-21T20:45:18.812Z,28.35
2023-04-21T20:47:45.581Z,28.83
2023-04-21T20:50:12.705Z,23.00
2023-04-21T20:52:39.366Z,24.63
2023-04-21T20:55:06.363Z,25.42
2023-04-21T20:57:33.560Z,29.30
2023-04-21T21:00:00.253Z,21.67
2023-04-21T21:02:26.981Z,17.20
2023-04-21T21:04:53.723Z,19.88
2023-04-21T21:07:20.499Z,26.55
2023-04-21T21:09:47.146Z,23.50
2023-04-21T21:12:13.911Z,22.52
2023-04-21T21:14:40.708Z,26.60
2023-04-21T21:17:08.279Z,26.52
2023-04-21T21:19:35.090Z,27.40
2023-04-21T21:22:02.899Z,27.52
2023-04-21T21:24:29.817Z,24.02
2023-04-21T21:26:57.395Z,30.35
2023-04-21T21:29:24.492Z,32.38
2023-04-21T21:31:51.203Z,38.20
2023-04-21T21:34:20.022Z,28.58
2023-04-21T21:36:46.877Z,30.42
2023-04-21T21:39:13.684Z,26.67
2023-04-21T21:41:40.395Z,24.52
2023-04-21T21:44:07.927Z,27.27
2023-04-21T21:46:35.408Z,25.77
2023-04-21T21:49:02.123Z,25.67
2023-04-21T21:51:28.994Z,36.95
2023-04-21T21:53:55.639Z,28.75
2023-04-21T21:56:24.020Z,29.88
2023-04-21T21:58:51.897Z,36.05
2023-04-21T22:01:18.658Z,29.92
2023-04-21T22:03:45.730Z,42.42
2023-04-21T22:06:15.467Z,30.77
2023-04-21T22:08:43.511Z,37.13
2023-04-21T22:11:13.712Z,34.25
2023-04-21T22:13:40.706Z,28.05
2023-04-21T22:16:07.407Z,31.38
2023-04-21T22:18:34.059Z,28.10
2023-04-21T22:21:00.724Z,25.73
2023-04-21T22:23:27.566Z,26.33
2023-04-21T22:25:55.397Z,23.05
2023-04-21T22:28:22.142Z,32.35
2023-04-21T22:30:48.824Z,34.83
2023-04-21T22:33:15.601Z,28.73
2023-04-21T22:35:42.296Z,31.92
2023-04-21T22:38:08.912Z,26.48
2023-04-21T22:40:36.026Z,31.17
2023-04-21T22:43:02.833Z,31.20
2023-04-21T22:45:29.693Z,25.77
2023-04-21T22:47:56.839Z,30.63
2023-04-21T22:50:23.705Z,29.92
2023-04-21T22:52:50.304Z,26.58
2023-04-21T22:55:17.068Z,24.10
2023-04-21T22:57:44.011Z,28.75
2023-04-21T23:00:11.105Z,29.33
2023-04-21T23:02:39.019Z,32.58
2023-04-21T23:05:06.286Z,29.15
2023-04-21T23:07:32.918Z,25.10
2023-04-21T23:09:59.633Z,27.85
2023-04-21T23:12:26.368Z,34.22
2023-04-21T23:14:53.178Z,29.42
2023-04-21T23:17:19.931Z,27.10
2023-04-21T23:19:46.698Z,24.45
2023-04-21T23:22:13.488Z,28.95
2023-04-21T23:24:40.772Z,25.05
2023-04-21T23:27:07.377Z,22.73
2023-04-21T23:29:34.048Z,25.98
2023-04-21T23:32:00.744Z,27.00
2023-04-21T23:34:27.670Z,20.58
2023-04-21T23:36:54.311Z,25.67
2023-04-21T23:39:22.498Z,25.75
2023-04-21T23:41:49.697Z,20.08
2023-04-21T23:44:16.476Z,34.42
2023-04-21T23:46:43.194Z,24.15
2023-04-21T23:49:09.932Z,31.90
2023-04-21T23:51:36.576Z,21.05
2023-04-21T23:54:03.433Z,26.90
2023-04-21T23:56:32.874Z,16.88
2023-04-21T23:58:59.492Z,19.95
